createdAt,value
2023-05-03T00:00:56.167Z,57.49
2023-05-03T00:03:23.712Z,57.08
2023-05-03T00:05:50.540Z,57.15
2023-05-03T00:08:17.179Z,58.21
2023-05-03T00:10:43.796Z,58.60
2023-05-03T00:13:10.538Z,58.26
2023-05-03T00:15:37.184Z,58.90
2023-05-03T00:18:03.843Z,58.57
2023-05-03T00:20:30.609Z,59.59
2023-05-03T00:22:57.323Z,59.45
2023-05-03T00:25:24.077Z,59.38
2023-05-03T00:27:50.740Z,59.05
2023-05-03T00:30:18.958Z,58.30
2023-05-03T00:32:45.902Z,58.39
2023-05-03T00:35:12.591Z,59.28
2023-05-03T00:37:39.436Z,59.10
2023-05-03T00:40:07.345Z,59.55
2023-05-03T00:42:36.632Z,59.93
2023-05-03T00:45:05.953Z,58.29
2023-05-03T00:47:33.378Z,58.98
2023-05-03T00:50:01.314Z,58.24
2023-05-03T00:52:31.516Z,58.14
2023-05-03T00:54:58.573Z,58.61
2023-05-03T00:57:27.229Z,58.55
2023-05-03T00:59:56.582Z,58.28
2023-05-03T01:02:24.736Z,57.98
2023-05-03T01:04:53.458Z,58.85
2023-05-03T01:07:45.257Z,58.55
2023-05-03T01:10:23.286Z,58.54
2023-05-03T01:13:06.714Z,58.39
2023-05-03T01:15:44.841Z,59.00
2023-05-03T01:18:16.094Z,59.04
2023-05-03T01:20:46.755Z,60.29
2023-05-03T01:23:32.324Z,59.09
2023-05-03T01:25:59.126Z,58.23
2023-05-03T01:28:25.800Z,58.99
2023-05-03T01:30:54.101Z,58.83
2023-05-03T01:33:40.582Z,59.03
2023-05-03T01:36:23.005Z,59.21
2023-05-03T01:38:50.732Z,59.94
2023-05-03T01:41:19.498Z,59.35
2023-05-03T01:43:47.809Z,59.52
2023-05-03T01:46:15.753Z,58.81
2023-05-03T01:48:44.984Z,59.55
2023-05-03T01:51:11.605Z,59.80
2023-05-03T01:53:38.311Z,59.67
2023-05-03T01:56:05.634Z,59.48
2023-05-03T01:58:33.049Z,59.61
2023-05-03T02:00:59.701Z,59.19
2023-05-03T02:03:26.476Z,59.12
2023-05-03T02:05:53.181Z,58.83
2023-05-03T02:08:19.797Z,60.19
2023-05-03T02:10:46.611Z,59.60
2023-05-03T02:13:13.303Z,58.83
2023-05-03T02:15:39.905Z,60.18
2023-05-03T02:18:08.244Z,60.65
2023-05-03T02:20:37.819Z,60.09
2023-05-03T02:23:04.732Z,60.20
2023-05-03T02:25:31.887Z,60.37
2023-05-03T02:27:58.617Z,60.82
2023-05-03T02:30:25.288Z,60.54
2023-05-03T02:32:52.071Z,60.37
2023-05-03T02:35:20.100Z,60.58
2023-05-03T02:37:46.878Z,60.97
2023-05-03T02:40:14.060Z,61.40
2023-05-03T02:42:42.890Z,60.60
2023-05-03T02:45:10.596Z,61.51
2023-05-03T02:47:37.427Z,61.02
2023-05-03T02:50:04.658Z,61.19
2023-05-03T02:52:35.408Z,61.93
2023-05-03T02:55:02.145Z,61.61
2023-05-03T02:57:30.217Z,61.38
2023-05-03T02:59:58.631Z,61.16
2023-05-03T03:02:26.554Z,62.15
2023-05-03T03:04:53.993Z,62.37
2023-05-03T03:07:20.813Z,62.27
2023-05-03T03:09:47.547Z,62.36
2023-05-03T03:12:14.330Z,61.59
2023-05-03T03:14:41.665Z,61.78
2023-05-03T03:17:09.953Z,61.93
2023-05-03T03:19:36.835Z,61.99
2023-05-03T03:22:03.472Z,61.96
2023-05-03T03:24:31.733Z,61.91
2023-05-03T03:26:58.588Z,61.36
2023-05-03T03:29:26.119Z,62.25
2023-05-03T03:31:52.903Z,62.38
2023-05-03T03:34:19.986Z,62.15
2023-05-03T03:36:46.878Z,63.27
2023-05-03T03:39:14.129Z,62.56
2023-05-03T03:41:43.657Z,63.85
2023-05-03T03:44:11.016Z,63.51
2023-05-03T03:46:38.518Z,62.49
2023-05-03T03:49:05.258Z,63.04
2023-05-03T03:51:32.175Z,63.03
2023-05-03T03:53:59.986Z,64.05
2023-05-03T03:56:30.648Z,62.27
2023-05-03T03:58:57.884Z,62.17
2023-05-03T04:01:25.206Z,61.75
2023-05-03T04:03:52.449Z,61.77
2023-05-03T04:06:19.219Z,61.72
2023-05-03T04:08:47.101Z,62.94
2023-05-03T04:11:15.495Z,62.51
2023-05-03T04:13:49.369Z,62.85
2023-05-03T04:16:16.985Z,62.83
2023-05-03T04:18:45.350Z,62.53
2023-05-03T04:21:12.126Z,62.15
2023-05-03T04:23:40.338Z,61.53
2023-05-03T04:26:17.044Z,63.06
2023-05-03T04:28:52.445Z,61.91
2023-05-03T04:31:21.882Z,62.37
2023-05-03T04:33:52.300Z,61.60
2023-05-03T04:36:19.213Z,62.46
2023-05-03T04:38:47.862Z,62.81
2023-05-03T04:41:16.120Z,64.15
2023-05-03T04:43:46.568Z,63.34
2023-05-03T04:46:13.746Z,62.72
2023-05-03T04:48:40.456Z,62.10
2023-05-03T04:51:07.932Z,61.85
2023-05-03T04:53:35.149Z,62.80
2023-05-03T04:56:09.661Z,62.40
2023-05-03T04:58:39.008Z,62.36
2023-05-03T05:01:07.564Z,62.91
2023-05-03T05:03:34.825Z,62.79
2023-05-03T05:06:09.944Z,62.98
2023-05-03T05:08:38.726Z,62.13
2023-05-03T05:11:08.147Z,62.77
2023-05-03T05:13:35.443Z,62.61
2023-05-03T05:16:02.348Z,62.20
2023-05-03T05:18:29.226Z,61.41
2023-05-03T05:20:57.141Z,61.40
2023-05-03T05:23:24.052Z,61.63
2023-05-03T05:25:51.543Z,61.37
2023-05-03T05:28:18.304Z,61.76
2023-05-03T05:30:46.277Z,61.91
2023-05-03T05:33:13.217Z,61.20
2023-05-03T05:35:40.240Z,61.41
2023-05-03T05:38:07.460Z,61.25
2023-05-03T05:40:34.703Z,62.46
2023-05-03T05:43:02.015Z,61.69
2023-05-03T05:45:30.966Z,62.93
2023-05-03T05:47:58.292Z,61.27
2023-05-03T05:50:25.445Z,61.74
2023-05-03T05:53:01.824Z,60.24
2023-05-03T05:55:33.778Z,59.50
2023-05-03T05:58:01.242Z,57.95
2023-05-03T06:00:36.182Z,58.46
2023-05-03T06:03:03.120Z,58.22
2023-05-03T06:05:30.445Z,58.24
2023-05-03T06:07:57.177Z,57.91
2023-05-03T06:10:23.922Z,58.31
2023-05-03T06:12:53.001Z,56.86
2023-05-03T06:15:23.613Z,56.64
2023-05-03T06:17:50.618Z,57.03
2023-05-03T06:20:18.139Z,55.63
2023-05-03T06:22:44.842Z,56.47
2023-05-03T06:25:15.457Z,55.56
2023-05-03T06:27:45.624Z,56.10
2023-05-03T06:30:12.849Z,54.67
2023-05-03T06:32:42.097Z,55.89
2023-05-03T06:35:09.457Z,55.91
2023-05-03T06:37:38.125Z,54.37
2023-05-03T06:40:07.202Z,53.79
2023-05-03T06:42:33.795Z,53.72
2023-05-03T06:45:08.322Z,53.06
2023-05-03T06:47:37.658Z,53.65
2023-05-03T06:50:05.221Z,53.69
2023-05-03T06:52:32.779Z,53.14
2023-05-03T06:54:59.684Z,52.45
2023-05-03T06:57:28.651Z,52.58
2023-05-03T06:59:55.858Z,53.15
2023-05-03T07:02:23.150Z,54.15
2023-05-03T07:04:49.925Z,53.81
2023-05-03T07:07:16.845Z,54.28
2023-05-03T07:09:44.002Z,54.90
2023-05-03T07:12:11.393Z,55.36
2023-05-03T07:14:39.755Z,54.76
2023-05-03T07:17:06.655Z,55.10
2023-05-03T07:19:33.392Z,55.95
2023-05-03T07:22:00.277Z,55.11
2023-05-03T07:24:27.040Z,55.22
2023-05-03T07:26:53.964Z,54.47
2023-05-03T07:29:21.640Z,53.95
2023-05-03T07:31:48.940Z,54.59
2023-05-03T07:34:16.361Z,53.85
2023-05-03T07:36:43.091Z,53.13
2023-05-03T07:39:09.932Z,52.37
2023-05-03T07:41:37.001Z,52.26
2023-05-03T07:44:03.917Z,51.43
2023-05-03T07:46:34.889Z,51.23
2023-05-03T07:49:05.339Z,50.11
2023-05-03T07:51:36.998Z,50.88
2023-05-03T07:54:05.440Z,50.78
2023-05-03T07:56:32.193Z,49.72
2023-05-03T07:59:08.201Z,50.63
2023-05-03T08:01:36.646Z,50.61
2023-05-03T08:04:04.563Z,50.50
2023-05-03T08:06:32.529Z,49.91
2023-05-03T08:08:59.247Z,49.59
2023-05-03T08:11:27.498Z,48.98
2023-05-03T08:13:54.164Z,49.90
2023-05-03T08:16:21.406Z,51.53
2023-05-03T08:18:48.254Z,51.73
2023-05-03T08:21:16.756Z,52.92
2023-05-03T08:23:43.436Z,52.41
2023-05-03T08:26:10.797Z,52.46
2023-05-03T08:28:37.972Z,51.83
2023-05-03T08:31:04.993Z,51.61
2023-05-03T08:33:31.826Z,51.26
2023-05-03T08:35:58.590Z,50.47
2023-05-03T08:38:25.632Z,49.95
2023-05-03T08:40:55.594Z,50.83
2023-05-03T08:43:23.857Z,49.88
2023-05-03T08:45:51.341Z,48.80
2023-05-03T08:48:18.380Z,49.18
2023-05-03T08:50:45.039Z,49.03
2023-05-03T08:53:11.973Z,50.33
2023-05-03T08:55:38.838Z,51.04
2023-05-03T08:58:10.679Z,50.32
2023-05-03T09:00:38.379Z,50.08
2023-05-03T09:03:05.260Z,50.55
2023-05-03T09:05:34.747Z,49.71
2023-05-03T09:08:10.403Z,49.67
2023-05-03T09:10:42.139Z,49.49
2023-05-03T09:13:10.400Z,48.37
2023-05-03T09:15:37.577Z,47.76
2023-05-03T09:18:12.831Z,47.02
2023-05-03T09:20:41.762Z,46.71
2023-05-03T09:23:09.958Z,47.68
2023-05-03T09:25:44.446Z,49.88
2023-05-03T09:28:11.906Z,50.14
2023-05-03T09:30:38.726Z,49.28
2023-05-03T09:33:05.810Z,47.86
2023-05-03T09:35:32.581Z,47.73
2023-05-03T09:38:00.330Z,47.67
2023-05-03T09:40:29.062Z,47.55
2023-05-03T09:43:09.492Z,47.57
2023-05-03T09:45:37.675Z,47.09
2023-05-03T09:48:06.561Z,47.42
2023-05-03T09:50:34.265Z,48.07
2023-05-03T09:53:03.642Z,47.44
2023-05-03T09:55:39.475Z,47.65
2023-05-03T09:58:07.716Z,46.40
2023-05-03T10:00:39.075Z,47.28
2023-05-03T10:03:11.256Z,47.27
2023-05-03T10:05:46.348Z,47.42
2023-05-03T10:08:33.378Z,47.51
2023-05-03T10:11:03.652Z,47.38
2023-05-03T10:13:31.813Z,47.75
2023-05-03T10:16:12.691Z,47.57
2023-05-03T10:18:47.935Z,46.80
2023-05-03T10:21:21.715Z,47.36
2023-05-03T10:24:15.757Z,47.50
2023-05-03T10:26:50.135Z,48.24
2023-05-03T10:29:35.997Z,46.23
2023-05-03T10:32:06.148Z,46.18
2023-05-03T10:34:39.532Z,45.62
2023-05-03T10:37:11.478Z,46.14
2023-05-03T10:39:44.468Z,47.00
2023-05-03T10:42:11.090Z,46.53
2023-05-03T10:44:51.326Z,46.79
2023-05-03T10:47:19.974Z,46.33
2023-05-03T10:49:46.637Z,46.59
2023-05-03T10:52:35.356Z,46.87
2023-05-03T10:55:02.867Z,46.78
2023-05-03T10:57:32.266Z,47.10
2023-05-03T10:59:59.940Z,46.56
2023-05-03T11:02:33.748Z,46.37
2023-05-03T11:05:05.331Z,47.17
2023-05-03T11:07:32.400Z,47.58
2023-05-03T11:09:59.039Z,46.87
2023-05-03T11:12:25.691Z,47.45
2023-05-03T11:14:52.480Z,46.98
2023-05-03T11:17:19.174Z,48.49
2023-05-03T11:19:46.430Z,49.22
2023-05-03T11:22:13.225Z,47.31
2023-05-03T11:24:39.827Z,48.07
2023-05-03T11:27:08.285Z,48.46
2023-05-03T11:29:36.081Z,47.58
2023-05-03T11:32:03.067Z,47.78
2023-05-03T11:34:29.988Z,49.39
2023-05-03T11:36:57.977Z,49.56
2023-05-03T11:39:24.888Z,48.87
2023-05-03T11:42:02.763Z,47.96
2023-05-03T11:44:29.435Z,48.51
2023-05-03T11:46:56.570Z,47.96
2023-05-03T11:49:24.229Z,48.84
2023-05-03T11:51:54.620Z,47.50
2023-05-03T11:54:26.753Z,46.87
2023-05-03T11:56:59.033Z,47.95
2023-05-03T11:59:38.784Z,46.53
2023-05-03T12:02:07.590Z,45.92
2023-05-03T12:04:34.882Z,47.17
2023-05-03T12:07:03.484Z,46.74
2023-05-03T12:09:31.879Z,46.81
2023-05-03T12:11:59.551Z,47.92
2023-05-03T12:14:29.532Z,47.00
2023-05-03T12:16:59.837Z,47.53
2023-05-03T12:19:34.062Z,48.01
2023-05-03T12:22:17.910Z,48.33
2023-05-03T12:24:49.802Z,47.52
2023-05-03T12:27:19.083Z,47.31
2023-05-03T12:29:47.616Z,46.09
2023-05-03T12:32:14.977Z,46.84
2023-05-03T12:34:42.446Z,48.14
2023-05-03T12:37:11.678Z,47.25
2023-05-03T12:39:40.436Z,47.04
2023-05-03T12:42:08.924Z,46.46
2023-05-03T12:44:42.717Z,47.49
2023-05-03T12:47:11.000Z,46.45
2023-05-03T12:49:39.209Z,46.15
2023-05-03T12:52:35.229Z,46.03
2023-05-03T12:54:55.747Z,46.95
2023-05-03T12:57:23.940Z,45.26
2023-05-03T12:59:54.953Z,46.46
2023-05-03T13:05:11.844Z,45.08
2023-05-03T13:07:43.183Z,46.73
2023-05-03T13:12:40.679Z,46.73
2023-05-03T13:15:08.470Z,46.31
2023-05-03T13:17:35.389Z,44.92
2023-05-03T13:20:02.460Z,43.87
2023-05-03T13:22:31.939Z,43.50
2023-05-03T13:24:58.941Z,43.65
2023-05-03T13:27:25.770Z,44.28
2023-05-03T13:29:52.519Z,43.52
2023-05-03T13:32:19.489Z,43.33
2023-05-03T13:34:46.237Z,43.07
2023-05-03T13:37:18.144Z,43.36
2023-05-03T13:39:48.176Z,43.62
2023-05-03T13:42:14.918Z,43.78
2023-05-03T13:44:42.452Z,41.46
2023-05-03T13:47:09.134Z,42.06
2023-05-03T13:49:36.099Z,43.21
2023-05-03T13:52:03.330Z,42.53
2023-05-03T13:54:31.581Z,41.53
2023-05-03T13:56:59.361Z,41.78
2023-05-03T13:59:26.206Z,42.85
2023-05-03T14:01:52.868Z,40.63
2023-05-03T14:04:19.879Z,43.24
2023-05-03T14:06:46.885Z,41.70
2023-05-03T14:09:13.918Z,39.79
2023-05-03T14:11:40.885Z,40.54
2023-05-03T14:14:07.790Z,38.74
2023-05-03T14:19:04.177Z,40.43
2023-05-03T14:21:31.747Z,40.04
2023-05-03T14:23:58.538Z,37.94
2023-05-03T14:26:26.620Z,37.07
2023-05-03T14:28:53.313Z,37.16
2023-05-03T14:31:20.166Z,36.84
2023-05-03T14:33:46.884Z,38.42
2023-05-03T14:36:13.599Z,40.88
2023-05-03T14:38:40.264Z,37.33
2023-05-03T14:41:07.557Z,36.08
2023-05-03T14:43:34.357Z,36.10
2023-05-03T14:46:01.801Z,35.47
2023-05-03T14:48:28.663Z,33.68
2023-05-03T14:50:56.320Z,29.50
2023-05-03T14:53:23.400Z,28.32
2023-05-03T14:55:50.182Z,26.48
2023-05-03T14:58:16.965Z,24.36
2023-05-03T15:00:43.986Z,23.96
2023-05-03T15:03:12.145Z,22.44
2023-05-03T15:05:47.062Z,21.96
2023-05-03T15:08:15.964Z,20.54
2023-05-03T15:10:45.303Z,20.10
2023-05-03T15:13:13.498Z,20.13
2023-05-03T15:15:42.764Z,21.78
2023-05-03T15:18:09.999Z,23.23
2023-05-03T15:20:36.759Z,21.45
2023-05-03T15:23:04.650Z,20.49
2023-05-03T15:25:31.953Z,19.62
2023-05-03T15:28:00.619Z,19.01
2023-05-03T15:30:30.195Z,19.56
2023-05-03T15:32:57.105Z,23.02
2023-05-03T15:35:24.181Z,26.24
2023-05-03T15:37:50.812Z,24.86
2023-05-03T15:40:18.598Z,27.46
2023-05-03T15:42:45.482Z,28.42
2023-05-03T15:45:13.122Z,28.84
2023-05-03T15:47:40.067Z,30.57
2023-05-03T15:50:07.704Z,30.91
2023-05-03T15:52:34.981Z,30.17
2023-05-03T15:55:01.785Z,30.63
2023-05-03T15:57:31.880Z,31.10
2023-05-03T15:59:59.222Z,30.23
2023-05-03T16:02:26.277Z,30.96
2023-05-03T16:04:53.238Z,30.89
2023-05-03T16:07:20.172Z,32.28
2023-05-03T16:09:47.105Z,32.25
2023-05-03T16:12:13.746Z,31.60
2023-05-03T16:14:40.601Z,30.21
2023-05-03T16:17:09.787Z,33.23
2023-05-03T16:19:37.535Z,32.04
2023-05-03T16:22:05.050Z,31.17
2023-05-03T16:24:33.030Z,31.35
2023-05-03T16:26:59.758Z,31.39
2023-05-03T16:29:27.747Z,31.38
2023-05-03T16:31:55.384Z,31.44
2023-05-03T16:34:22.345Z,31.17
2023-05-03T16:36:50.682Z,30.76
2023-05-03T16:39:17.838Z,30.86
2023-05-03T16:41:44.577Z,31.23
2023-05-03T16:44:11.527Z,31.87
2023-05-03T16:46:40.092Z,30.47
2023-05-03T16:49:07.234Z,32.99
2023-05-03T16:51:34.034Z,33.57
2023-05-03T16:54:04.426Z,31.56
2023-05-03T16:56:32.141Z,31.47
2023-05-03T16:59:02.930Z,33.91
2023-05-03T17:01:29.643Z,33.10
2023-05-03T17:03:56.943Z,34.36
2023-05-03T17:06:23.687Z,34.01
2023-05-03T17:08:50.497Z,33.22
2023-05-03T17:11:17.217Z,33.06
2023-05-03T17:13:44.376Z,33.95
2023-05-03T17:16:15.074Z,35.35
2023-05-03T17:18:42.264Z,34.38
2023-05-03T17:21:09.934Z,34.90
2023-05-03T17:23:38.231Z,35.12
2023-05-03T17:26:08.281Z,34.74
2023-05-03T17:28:36.055Z,34.64
2023-05-03T17:31:03.376Z,34.82
2023-05-03T17:33:30.093Z,33.96
2023-05-03T17:35:56.867Z,34.01
2023-05-03T17:38:23.701Z,34.06
2023-05-03T17:40:50.702Z,34.65
2023-05-03T17:43:17.974Z,35.14
2023-05-03T17:45:47.241Z,35.60
2023-05-03T17:48:14.395Z,35.90
2023-05-03T17:50:43.025Z,35.96
2023-05-03T17:53:09.965Z,36.37
2023-05-03T17:55:38.316Z,34.90
2023-05-03T17:58:06.681Z,34.55
2023-05-03T18:00:33.889Z,34.27
2023-05-03T18:03:01.440Z,33.72
2023-05-03T18:05:28.346Z,34.16
2023-05-03T18:07:55.066Z,33.80
2023-05-03T18:10:22.176Z,34.04
2023-05-03T18:12:48.995Z,33.92
2023-05-03T18:15:16.246Z,34.21
2023-05-03T18:17:43.476Z,34.39
2023-05-03T18:20:10.808Z,34.31
2023-05-03T18:22:37.704Z,34.42
2023-05-03T18:25:07.406Z,35.01
2023-05-03T18:27:37.323Z,35.15
2023-05-03T18:30:06.615Z,35.27
2023-05-03T18:32:34.252Z,34.91
2023-05-03T18:35:01.309Z,35.12
2023-05-03T18:37:31.032Z,35.72
2023-05-03T18:39:57.803Z,35.45
2023-05-03T18:42:24.587Z,35.73
2023-05-03T18:44:51.963Z,35.99
2023-05-03T18:47:20.644Z,36.22
2023-05-03T18:49:52.376Z,36.81
2023-05-03T18:52:22.911Z,36.73
2023-05-03T18:54:49.765Z,36.82
2023-05-03T18:57:16.811Z,37.48
2023-05-03T18:59:56.588Z,37.53
2023-05-03T19:02:30.262Z,37.54
2023-05-03T19:04:57.301Z,37.79
2023-05-03T19:07:24.100Z,37.60
2023-05-03T19:09:55.140Z,37.47
2023-05-03T19:12:22.236Z,37.28
2023-05-03T19:14:49.183Z,37.53
2023-05-03T19:17:15.812Z,37.49
2023-05-03T19:19:42.531Z,37.72
2023-05-03T19:22:09.270Z,37.97
2023-05-03T19:24:36.132Z,38.11
2023-05-03T19:27:04.326Z,37.76
2023-05-03T19:29:31.019Z,38.05
2023-05-03T19:31:57.713Z,38.08
2023-05-03T19:34:24.406Z,37.92
2023-05-03T19:36:51.113Z,38.74
2023-05-03T19:39:18.012Z,38.35
2023-05-03T19:41:44.802Z,38.11
2023-05-03T19:44:11.976Z,38.55
2023-05-03T19:46:39.059Z,38.36
2023-05-03T19:49:06.268Z,38.97
2023-05-03T19:51:33.419Z,37.64
2023-05-03T19:54:03.499Z,38.89
2023-05-03T19:56:30.605Z,37.54
2023-05-03T19:58:57.684Z,37.74
2023-05-03T20:01:24.839Z,38.37
2023-05-03T20:03:53.552Z,37.41
2023-05-03T20:06:22.097Z,37.38
2023-05-03T20:08:50.903Z,37.53
2023-05-03T20:11:19.468Z,37.28
2023-05-03T20:13:46.727Z,36.85
2023-05-03T20:16:13.612Z,36.93
2023-05-03T20:18:41.777Z,37.08
2023-05-03T20:21:09.133Z,36.68
2023-05-03T20:23:35.894Z,36.78
2023-05-03T20:26:02.771Z,36.74
2023-05-03T20:28:31.781Z,36.64
2023-05-03T20:30:58.412Z,36.31
2023-05-03T20:33:25.141Z,35.97
2023-05-03T20:35:52.420Z,35.97
2023-05-03T20:38:20.166Z,35.79
2023-05-03T20:40:46.830Z,36.33
2023-05-03T20:43:13.915Z,35.98
2023-05-03T20:45:40.615Z,36.56
2023-05-03T20:48:07.924Z,36.71
2023-05-03T20:50:34.772Z,36.71
2023-05-03T20:53:01.486Z,37.19
2023-05-03T20:55:28.219Z,36.18
2023-05-03T20:57:54.827Z,36.32
2023-05-03T21:00:22.293Z,36.00
2023-05-03T21:02:53.779Z,36.71
2023-05-03T21:05:21.708Z,37.01
2023-05-03T21:07:48.711Z,36.80
2023-05-03T21:10:15.400Z,37.17
2023-05-03T21:12:42.195Z,36.85
2023-05-03T21:15:09.443Z,38.09
2023-05-03T21:17:36.118Z,37.93
2023-05-03T21:20:03.872Z,37.62
2023-05-03T21:22:31.150Z,37.93
2023-05-03T21:24:57.743Z,37.68
2023-05-03T21:27:24.453Z,38.02
2023-05-03T21:29:51.373Z,37.86
2023-05-03T21:32:18.078Z,37.91
2023-05-03T21:34:44.700Z,38.13
2023-05-03T21:37:11.489Z,38.24
2023-05-03T21:39:38.172Z,38.42
2023-05-03T21:42:04.802Z,38.68
2023-05-03T21:44:31.434Z,38.54
2023-05-03T21:46:58.230Z,38.71
2023-05-03T21:49:24.894Z,38.59
2023-05-03T21:51:51.541Z,39.02
2023-05-03T21:54:19.095Z,38.66
2023-05-03T21:56:45.773Z,38.82
2023-05-03T21:59:12.798Z,39.16
2023-05-03T22:01:39.532Z,38.60
2023-05-03T22:04:06.486Z,38.74
2023-05-03T22:06:33.180Z,38.90
2023-05-03T22:08:59.798Z,38.74
2023-05-03T22:11:26.511Z,38.99
2023-05-03T22:14:06.858Z,39.53
2023-05-03T22:16:35.155Z,39.16
2023-05-03T22:19:02.015Z,39.10
2023-05-03T22:21:28.764Z,39.16
2023-05-03T22:23:55.441Z,39.37
2023-05-03T22:26:22.408Z,39.63
2023-05-03T22:28:49.358Z,39.74
2023-05-03T22:31:16.171Z,39.93
2023-05-03T22:33:44.821Z,39.66
2023-05-03T22:36:12.343Z,39.44
2023-05-03T22:38:41.279Z,39.94
2023-05-03T22:41:09.526Z,40.09
2023-05-03T22:43:36.371Z,40.35
2023-05-03T22:46:03.240Z,40.04
2023-05-03T22:48:32.081Z,40.75
2023-05-03T22:50:58.858Z,40.16
2023-05-03T22:53:25.680Z,40.28
2023-05-03T22:55:56.346Z,40.49
2023-05-03T22:58:24.001Z,39.93
2023-05-03T23:00:50.707Z,40.39
2023-05-03T23:03:17.463Z,39.45
2023-05-03T23:05:44.243Z,39.29
2023-05-03T23:08:11.079Z,39.98
2023-05-03T23:10:37.678Z,40.09
2023-05-03T23:13:04.321Z,40.71
2023-05-03T23:15:31.113Z,41.72
2023-05-03T23:17:58.065Z,42.90
2023-05-03T23:20:24.789Z,44.34
2023-05-03T23:22:51.462Z,43.52
2023-05-03T23:25:18.216Z,43.03
2023-05-03T23:27:44.863Z,42.43
2023-05-03T23:30:13.443Z,41.85
2023-05-03T23:32:40.819Z,43.96
2023-05-03T23:35:08.315Z,44.74
2023-05-03T23:37:34.925Z,44.72
2023-05-03T23:40:01.992Z,44.75
2023-05-03T23:42:31.014Z,44.09
2023-05-03T23:44:57.786Z,44.64
2023-05-03T23:47:24.633Z,45.35
2023-05-03T23:49:51.402Z,45.38
2023-05-03T23:52:19.741Z,45.93
2023-05-03T23:54:46.492Z,45.58
2023-05-03T23:57:13.166Z,46.14
2023-05-03T23:59:39.780Z,45.79
